Rejestracja

Wszystkie dane podawane są w czasie UTC za wyjątkiem miejsc gdzie jest jednoznacznie podane, że jest inaczej. Dane podawane w serwisie mają charakter informacyjny!!!
Informacje w sprawie dostępu do serwisu pod numerem tel. +48 261-828-138
Informacja dla żołnierzy i pracowników wojska: Prosimy o niezwłoczną zmianę adresu e-mail w profilu użytkownika na pocztę w domenie @ron.mil.pl

Aktualna Pogoda
 
Pogoda w Polsce
12°C Szczecin 16°C Suwałki 17°C Warszawa 17°C Poznan
17°C Opole 16°C Kraków 16°C Rzeszów
Więcej miast w Polsce

Pogoda w Europie
15°C Berlin 16°C Paryz 14°C Bruksela 7°C Oslo
16°C Praga 18°C Zagrzeb
Więcej miast w Europie

Metary wojskowe test
METAR EPBC 281400Z 11004KT CAVOK 18/M08 Q1014=
METAR EPCE 281430Z 32010KT 290V360 CAVOK 14/M02 Q1015 RMK 140 034 0/0=
METAR EPDA 281430Z 36007KT 320V050 9999 BKN117 07/04 Q1016 RMK 073 082 5/5=
METAR EPDE 281400Z 07006KT 9999 NSC 19/M05 Q1014 RMK 189 019 3/3=
METAR EPKS 281430Z 13004KT 9999 NSC 17/M04 Q1014 RMK 169 023 0/0=
METAR EPLK 281430Z VRB02KT 9999 NSC 17/M05 Q1013 RMK 166 023 0/0=
METAR EPLY 281400Z 11004KT 9999 NSC 17/M03 Q1014 RMK 174 021 0/0=
METAR EPMB 281430Z 35005KT 290V030 9999 NSC 16/M03 Q1015 RMK 162 027 0/0=
METAR EPMI 281400Z 23005KT 170V300 9999 SCT070 16/M02 Q1015 RMK 158 030 3/3=
METAR EPMM 281400Z 14003KT 040V200 9999 FEW200 16/M07 Q1014 RMK 164 019 2/2=
METAR EPOK 281430Z 07003KT 030V130 CAVOK 10/M02 Q1016 RMK 104 042 0/0=
METAR EPPR 281430Z 07004KT 9999 FEW100 16/M03 Q1015 RMK 159 028 1/1=
METAR EPPW 281430Z 08006KT 9999 NSC 17/M06 Q1014 RMK 170 020 0/0=
METAR EPSN 281400Z 33010KT 300V020 9999 FEW080 15/00 Q1015 RMK 148 037 2/2=
METAR EPTM 281400Z 11004KT 9999 NSC 18/M05 Q1014 RMK 176 022 0/0=


 

Prawa autorskie©2007 SSH SZ RP. Wszelkie prawa zastrzeżone.